Gulden Leeuw — PCBH — position and weather

sailwx.info

Track history (hours):
 
Tides and Currents Weather Stations Pressure Air Temp Water Temp Dewpoint Dewpoint Depression Visibility Wind Speed Wind Dir Waves Ship Positions

Gulden Leeuw

Last reported at 2017-Nov-12 19:21 UTC. Time now 2017-Nov-20 15:40 UTC.
Position N 30°25' W 009°39'.

Length 57 m; draft 4.2 m.

Type: Sailing vessel. MMSI: 246709000.

Date/timePositionNaut miles runAvg speedWind from/ knotsBaromVisibWave heightAir tempDewpointWater temp
2017-Nov-12 19:21N 30°25' W 009°39'0 0.1
2017-Nov-12 18:51N 30°25' W 009°39'0 0.0
2017-Nov-12 18:21N 30°25' W 009°39'0 0.0
2017-Nov-12 16:21N 30°25' W 009°39'0 0.0
2017-Nov-12 15:51N 30°25' W 009°39'0 0.0
2017-Nov-12 13:36N 30°25' W 009°39'0 0.0
2017-Nov-12 13:27N 30°25' W 009°39'0 0.0
2017-Nov-12 12:57N 30°25' W 009°39'0 0.0
2017-Nov-12 12:27N 30°25' W 009°39'0 0.0
2017-Nov-12 10:04N 30°25' W 009°40'0 0.0
2017-Nov-12 10:00N 30°25' W 009°40'0 0.3
2017-Nov-12 09:29N 30°25' W 009°39'2 2.8
2017-Nov-12 08:49N 30°25' W 009°37'1 0.2
2017-Nov-12 02:49N 30°26' W 009°38'0 0.0
2017-Nov-12 02:30N 30°26' W 009°38'0 0.0
2017-Nov-12 02:00N 30°26' W 009°38'0 0.0
2017-Nov-12 01:30N 30°26' W 009°38'0 0.0
2017-Nov-12 01:00N 30°26' W 009°38'1 0.1
2017-Nov-11 08:38N 30°25' W 009°39'0 0.0
2017-Nov-11 06:56N 30°25' W 009°39'0 0.0
2017-Nov-11 03:59N 30°25' W 009°39'0 0.0
2017-Nov-11 03:11N 30°25' W 009°39'0 0.0
2017-Nov-11 02:59N 30°25' W 009°39'0 0.0
2017-Nov-11 02:14N 30°25' W 009°39'0 0.0
2017-Nov-11 01:59N 30°25' W 009°39'0 0.0
2017-Nov-11 01:26N 30°25' W 009°39'0 0.0
2017-Nov-11 00:26N 30°25' W 009°39'0 0.0
2017-Nov-10 23:59N 30°25' W 009°39'0 0.0
2017-Nov-10 23:17N 30°25' W 009°39'0 0.0
2017-Nov-10 22:47N 30°25' W 009°39'0 0.0
2017-Nov-10 22:20N 30°25' W 009°39'0 0.0
2017-Nov-10 21:59N 30°25' W 009°39'0 0.0
2017-Nov-10 21:17N 30°25' W 009°40'0 0.0
2017-Nov-10 17:23N 30°25' W 009°39'0 0.3
2017-Nov-10 16:55N 30°25' W 009°39'2 5.2
2017-Nov-10 16:30N 30°26' W 009°41'2 4.2
2017-Nov-10 16:00N 30°28' W 009°44'2 4.5
2017-Nov-10 15:30N 30°29' W 009°46'3 5.8
2017-Nov-10 14:58N 30°30' W 009°49'3 5.8
2017-Nov-10 14:30N 30°32' W 009°51'3 5.8
2017-Nov-10 13:59N 30°34' W 009°53'5 5.7
2017-Nov-10 13:12N 30°38' W 009°57'9 3.7
2017-Nov-10 10:42N 30°46' W 010°02'49 7.6
2017-Nov-10 04:11N 31°35' W 010°11'148 5.5
2017-Nov-09 01:12N 33°33' W 008°26'40 4.4
2017-Nov-08 16:13N 33°60' W 007°50'1 5.2
2017-Nov-08 15:58N 34°00' W 007°49'103 4.6
2017-Nov-07 17:31N 35°16' W 006°25'0 4.9
2017-Nov-07 17:30N 35°16' W 006°25'6 6.1
2017-Nov-07 16:32N 35°22' W 006°21'0 5.9
2017-Nov-07 16:28N 35°22' W 006°21'3 6.3
2017-Nov-07 15:58N 35°24' W 006°18'7 5.7
2017-Nov-07 14:48N 35°30' W 006°14'2 5.3
2017-Nov-07 14:30N 35°31' W 006°13'3 5.4
2017-Nov-07 14:01N 35°33' W 006°11'6 5.0
2017-Nov-07 12:53N 35°38' W 006°08'  
Track history (hours):
 
Tides and Currents Weather Stations Pressure Air Temp Water Temp Dewpoint Dewpoint Depression Visibility Wind Speed Wind Dir Waves Ship Positions

Gulden Leeuw

Last reported at 2017-Nov-12 19:21 UTC. Time now 2017-Nov-20 15:40 UTC.
Position N 30°25' W 009°39'.

Length 57 m; draft 4.2 m.

Type: Sailing vessel. MMSI: 246709000.

Date/timePositionNaut miles runAvg speedWind from/ knotsBaromVisibWave heightAir tempDewpointWater temp
2017-Nov-12 19:21N 30°25' W 009°39'0 0.1
2017-Nov-12 18:51N 30°25' W 009°39'0 0.0
2017-Nov-12 18:21N 30°25' W 009°39'0 0.0
2017-Nov-12 16:21N 30°25' W 009°39'0 0.0
2017-Nov-12 15:51N 30°25' W 009°39'0 0.0
2017-Nov-12 13:36N 30°25' W 009°39'0 0.0
2017-Nov-12 13:27N 30°25' W 009°39'0 0.0
2017-Nov-12 12:57N 30°25' W 009°39'0 0.0
2017-Nov-12 12:27N 30°25' W 009°39'0 0.0
2017-Nov-12 10:04N 30°25' W 009°40'0 0.0
2017-Nov-12 10:00N 30°25' W 009°40'0 0.3
2017-Nov-12 09:29N 30°25' W 009°39'2 2.8
2017-Nov-12 08:49N 30°25' W 009°37'1 0.2
2017-Nov-12 02:49N 30°26' W 009°38'0 0.0
2017-Nov-12 02:30N 30°26' W 009°38'0 0.0
2017-Nov-12 02:00N 30°26' W 009°38'0 0.0
2017-Nov-12 01:30N 30°26' W 009°38'0 0.0
2017-Nov-12 01:00N 30°26' W 009°38'1 0.1
2017-Nov-11 08:38N 30°25' W 009°39'0 0.0
2017-Nov-11 06:56N 30°25' W 009°39'0 0.0
2017-Nov-11 03:59N 30°25' W 009°39'0 0.0
2017-Nov-11 03:11N 30°25' W 009°39'0 0.0
2017-Nov-11 02:59N 30°25' W 009°39'0 0.0
2017-Nov-11 02:14N 30°25' W 009°39'0 0.0
2017-Nov-11 01:59N 30°25' W 009°39'0 0.0
2017-Nov-11 01:26N 30°25' W 009°39'0 0.0
2017-Nov-11 00:26N 30°25' W 009°39'0 0.0
2017-Nov-10 23:59N 30°25' W 009°39'0 0.0
2017-Nov-10 23:17N 30°25' W 009°39'0 0.0
2017-Nov-10 22:47N 30°25' W 009°39'0 0.0
2017-Nov-10 22:20N 30°25' W 009°39'0 0.0
2017-Nov-10 21:59N 30°25' W 009°39'0 0.0
2017-Nov-10 21:17N 30°25' W 009°40'0 0.0
2017-Nov-10 17:23N 30°25' W 009°39'0 0.3
2017-Nov-10 16:55N 30°25' W 009°39'2 5.2
2017-Nov-10 16:30N 30°26' W 009°41'2 4.2
2017-Nov-10 16:00N 30°28' W 009°44'2 4.5
2017-Nov-10 15:30N 30°29' W 009°46'3 5.8
2017-Nov-10 14:58N 30°30' W 009°49'3 5.8
2017-Nov-10 14:30N 30°32' W 009°51'3 5.8
2017-Nov-10 13:59N 30°34' W 009°53'5 5.7
2017-Nov-10 13:12N 30°38' W 009°57'9 3.7
2017-Nov-10 10:42N 30°46' W 010°02'49 7.6
2017-Nov-10 04:11N 31°35' W 010°11'148 5.5
2017-Nov-09 01:12N 33°33' W 008°26'40 4.4
2017-Nov-08 16:13N 33°60' W 007°50'1 5.2
2017-Nov-08 15:58N 34°00' W 007°49'103 4.6
2017-Nov-07 17:31N 35°16' W 006°25'0 4.9
2017-Nov-07 17:30N 35°16' W 006°25'6 6.1
2017-Nov-07 16:32N 35°22' W 006°21'0 5.9
2017-Nov-07 16:28N 35°22' W 006°21'3 6.3
2017-Nov-07 15:58N 35°24' W 006°18'7 5.7
2017-Nov-07 14:48N 35°30' W 006°14'2 5.3
2017-Nov-07 14:30N 35°31' W 006°13'3 5.4
2017-Nov-07 14:01N 35°33' W 006°11'6 5.0
2017-Nov-07 12:53N 35°38' W 006°08'  

Dump ship's entire track history